Time;durP1;ratioP1;P1;durP2;ratioP2;P2;SDS_P1;SDS_P2;PMS_P1;PMS_P2;Temp;Humidity;BMP_temperature;BMP_pressure;BME280_temperature;BME280_humidity;BME280_pressure;Samples;Min_cycle;Max_cycle;Signal;HPM_P1;HPM_P2
2021/07/03 00:00:21;;;;;;;3.70;2.40;;;;;;;17.95;77.92;99953.53;92718;1222;68467;-71
2021/07/03 00:02:48;;;;;;;2.60;2.40;;;;;;;17.90;77.97;99961.65;92700;1221;85868;-69
2021/07/03 00:04:59;;;;;;;4.10;2.30;;;;;;;17.85;78.19;99953.38;92737;1209;73894;-65
2021/07/03 00:07:08;;;;;;;4.60;2.80;;;;;;;17.77;78.54;99956.52;92717;1217;81548;-65
2021/07/03 00:09:16;;;;;;;3.10;2.50;;;;;;;17.77;78.63;99953.78;92696;1214;65298;-66
2021/07/03 00:11:26;;;;;;;3.50;2.90;;;;;;;17.83;78.45;99950.03;92653;1216;69291;-65
2021/07/03 00:13:34;;;;;;;3.40;2.90;;;;;;;17.86;78.69;99946.81;92653;1216;86128;-66
2021/07/03 00:15:42;;;;;;;3.00;2.60;;;;;;;17.88;78.63;99939.19;92900;1171;74220;-59
2021/07/03 00:17:54;;;;;;;4.40;3.20;;;;;;;17.83;78.75;99941.84;92701;1216;81472;-59
2021/07/03 00:20:09;;;;;;;3.60;2.90;;;;;;;17.85;78.54;99938.88;92868;1171;66263;-65
2021/07/03 00:22:17;;;;;;;4.20;3.30;;;;;;;17.88;78.97;99941.91;92766;1216;67916;-66
2021/07/03 00:24:28;;;;;;;4.70;3.20;;;;;;;17.86;78.93;99935.88;92712;1217;86950;-64
2021/07/03 00:26:39;;;;;;;3.30;3.00;;;;;;;17.83;78.94;99936.37;92744;1217;75149;-57
2021/07/03 00:28:47;;;;;;;3.40;3.10;;;;;;;17.85;79.04;99930.67;92720;1221;81421;-59
2021/07/03 00:30:54;;;;;;;3.50;3.20;;;;;;;17.87;78.94;99932.08;92749;1217;68456;-66
2021/07/03 00:33:02;;;;;;;3.40;3.10;;;;;;;17.95;79.06;99939.03;92739;1216;69185;-68
2021/07/03 00:35:12;;;;;;;4.30;3.40;;;;;;;17.99;78.90;99941.00;92754;1224;86255;-59
2021/07/03 00:37:20;;;;;;;3.80;2.80;;;;;;;17.97;78.89;99945.91;92721;1216;74994;-59
2021/07/03 00:39:30;;;;;;;3.10;2.80;;;;;;;17.96;79.01;99936.06;92693;1217;81099;-58
2021/07/03 00:41:40;;;;;;;4.10;3.00;;;;;;;17.96;78.96;99932.50;92693;1209;67585;-71
2021/07/03 00:43:48;;;;;;;4.80;3.20;;;;;;;17.88;79.32;99933.72;92722;1209;67982;-70
2021/07/03 00:45:56;;;;;;;4.00;3.00;;;;;;;17.86;79.20;99935.88;92687;1216;87473;-58
2021/07/03 00:48:04;;;;;;;4.30;3.80;;;;;;;17.93;79.25;99922.06;92725;1223;75573;-58
2021/07/03 00:50:16;;;;;;;4.30;3.60;;;;;;;17.94;79.15;99927.27;92707;1217;79985;-69
2021/07/03 00:52:24;;;;;;;4.40;3.50;;;;;;;17.98;79.13;99922.97;92715;1216;66870;-72
2021/07/03 00:54:34;;;;;;;3.80;3.50;;;;;;;18.00;79.34;99926.27;92727;1221;70347;-72
2021/07/03 00:56:42;;;;;;;3.20;2.90;;;;;;;18.02;79.25;99920.58;92684;1210;86265;-70
2021/07/03 00:58:50;;;;;;;4.00;3.10;;;;;;;17.97;79.24;99929.50;92691;1217;74909;-69
2021/07/03 01:00:57;;;;;;;5.50;3.40;;;;;;;17.97;79.38;99923.20;92665;1216;81859;-71
2021/07/03 01:03:05;;;;;;;4.30;3.90;;;;;;;17.96;79.43;99922.40;92718;1217;65812;-70
2021/07/03 01:05:15;;;;;;;4.10;3.70;;;;;;;17.92;79.52;99925.86;92739;1217;67839;-70
2021/07/03 01:07:23;;;;;;;4.00;3.60;;;;;;;17.92;79.62;99921.23;92713;1216;87135;-72
2021/07/03 01:09:31;;;;;;;3.60;3.00;;;;;;;17.94;79.65;99920.97;92722;1217;75173;-67
2021/07/03 01:11:39;;;;;;;3.60;3.30;;;;;;;17.98;79.56;99927.61;92744;1221;80169;-67
2021/07/03 01:13:47;;;;;;;5.40;3.40;;;;;;;17.92;79.74;99937.63;92765;1217;66099;-66
2021/07/03 01:15:55;;;;;;;4.00;3.50;;;;;;;17.91;79.79;99933.22;92721;1221;68129;-64
2021/07/03 01:18:06;;;;;;;4.50;3.30;;;;;;;17.92;79.75;99934.06;92751;1209;85368;-65
2021/07/03 01:20:17;;;;;;;3.60;3.30;;;;;;;17.85;80.01;99936.97;92706;1216;75057;-59
2021/07/03 01:22:24;;;;;;;4.80;3.60;;;;;;;17.77;80.14;99951.05;92703;1216;81310;-56
2021/07/03 01:24:33;;;;;;;3.80;3.50;;;;;;;17.78;80.07;99941.75;92740;1209;68735;-58
2021/07/03 01:26:49;;;;;;;4.00;3.60;;;;;;;17.80;80.18;99936.86;92719;1222;68274;-66
2021/07/03 01:28:56;;;;;;;4.80;3.70;;;;;;;17.85;80.05;99934.24;92747;1219;85136;-64
2021/07/03 01:31:04;;;;;;;4.90;3.80;;;;;;;17.89;80.21;99937.28;92717;1216;74962;-65
2021/07/03 01:33:11;;;;;;;3.90;3.50;;;;;;;17.91;80.21;99935.95;92719;1223;81908;-67
2021/07/03 01:35:26;;;;;;;4.70;3.80;;;;;;;17.91;80.12;99935.16;92714;1224;69509;-68
2021/07/03 01:37:37;;;;;;;3.90;3.50;;;;;;;17.93;80.27;99931.09;92733;1223;67950;-67
2021/07/03 01:39:45;;;;;;;3.80;3.50;;;;;;;17.89;80.23;99929.92;92704;1217;85869;-60
2021/07/03 01:41:53;;;;;;;3.80;3.40;;;;;;;17.93;80.42;99930.26;92620;1219;74740;-58
2021/07/03 01:44:01;;;;;;;4.30;3.90;;;;;;;17.95;80.40;99926.20;92631;1220;80929;-58
2021/07/03 01:46:08;;;;;;;4.30;3.90;;;;;;;17.98;80.53;99920.23;92656;1219;66032;-62
2021/07/03 01:48:22;;;;;;;5.50;4.00;;;;;;;17.95;80.49;99923.47;92716;1217;69172;-64
2021/07/03 01:50:30;;;;;;;4.40;4.00;;;;;;;17.97;80.43;99915.00;92700;1217;87950;-64
2021/07/03 01:52:41;;;;;;;4.30;3.90;;;;;;;17.97;80.47;99921.30;92697;1221;74289;-64
2021/07/03 01:54:48;;;;;;;4.20;3.80;;;;;;;17.98;80.61;99922.14;92696;1217;80745;-56
2021/07/03 01:56:59;;;;;;;4.40;4.00;;;;;;;17.98;80.58;99917.50;92672;1217;67545;-58
2021/07/03 01:59:07;;;;;;;6.10;4.10;;;;;;;18.04;80.53;99916.52;92754;1218;69377;-57
2021/07/03 02:01:14;;;;;;;4.30;3.90;;;;;;;18.01;80.51;99906.08;92694;1217;87186;-65
2021/07/03 02:03:23;;;;;;;4.80;4.00;;;;;;;18.02;80.60;99907.71;92715;1216;75569;-64
2021/07/03 02:05:34;;;;;;;4.80;3.70;;;;;;;17.99;80.69;99900.01;92685;1216;81371;-56
2021/07/03 02:07:42;;;;;;;4.30;3.90;;;;;;;18.04;80.65;99900.11;92690;1217;68407;-58
2021/07/03 02:09:49;;;;;;;5.40;3.70;;;;;;;17.98;80.72;99912.04;92715;1223;69828;-65
2021/07/03 02:11:57;;;;;;;4.70;3.80;;;;;;;17.94;80.74;99919.06;92728;1217;85303;-64
2021/07/03 02:14:05;;;;;;;4.80;4.30;;;;;;;17.88;80.83;99911.05;92761;1209;75209;-65
2021/07/03 02:16:12;;;;;;;5.10;4.60;;;;;;;17.97;80.79;99909.53;92667;1217;81023;-58
2021/07/03 02:18:20;;;;;;;5.10;4.60;;;;;;;17.91;81.07;99916.83;92702;1217;67119;-58
2021/07/03 02:20:28;;;;;;;6.10;4.60;;;;;;;17.90;80.87;99912.45;92715;1223;69547;-57
2021/07/03 02:22:35;;;;;;;5.30;4.20;;;;;;;17.89;80.88;99913.52;92760;1216;85933;-58
2021/07/03 02:24:43;;;;;;;5.70;4.00;;;;;;;17.88;81.12;99921.98;92691;1217;74753;-64
2021/07/03 02:26:51;;;;;;;5.00;4.40;;;;;;;17.85;81.04;99906.91;92661;1217;81830;-64
2021/07/03 02:29:01;;;;;;;6.00;3.80;;;;;;;17.80;81.52;99925.13;92687;1222;67574;-66
2021/07/03 02:31:10;;;;;;;5.50;4.30;;;;;;;17.77;81.38;99926.45;92702;1222;69184;-56
2021/07/03 02:33:18;;;;;;;3.90;3.60;;;;;;;17.77;81.30;99929.19;92684;1222;86760;-57
2021/07/03 02:35:26;;;;;;;4.30;3.90;;;;;;;17.77;81.45;99920.16;92701;1216;75399;-64
2021/07/03 02:37:34;;;;;;;4.80;3.80;;;;;;;17.78;81.36;99911.70;92722;1224;81119;-65
2021/07/03 02:39:41;;;;;;;5.70;3.80;;;;;;;17.81;81.35;99907.64;92691;1223;68366;-59
2021/07/03 02:41:49;;;;;;;5.20;3.50;;;;;;;17.81;81.42;99908.47;92658;1221;68754;-57
2021/07/03 02:43:59;;;;;;;5.20;3.70;;;;;;;17.86;81.41;99905.81;92695;1216;85581;-58
2021/07/03 02:46:09;;;;;;;4.80;4.30;;;;;;;17.95;81.42;99900.77;92721;1209;75486;-66
2021/07/03 02:48:17;;;;;;;4.80;4.40;;;;;;;17.97;81.37;99904.06;92702;1224;81821;-66
2021/07/03 02:50:25;;;;;;;4.80;4.20;;;;;;;17.95;81.37;99907.06;92705;1224;65725;-66
2021/07/03 02:52:36;;;;;;;4.70;4.30;;;;;;;17.95;81.42;99909.80;92720;1216;70354;-70
2021/07/03 02:54:48;;;;;;;4.70;4.30;;;;;;;17.97;81.36;99910.38;92642;1219;87393;-69
2021/07/03 02:56:59;;;;;;;6.20;4.50;;;;;;;17.93;81.52;99906.50;92662;1223;75639;-69
2021/07/03 02:59:07;;;;;;;5.00;4.50;;;;;;;17.93;81.58;99911.13;92687;1222;82895;-72
2021/07/03 03:01:15;;;;;;;5.40;4.80;;;;;;;17.91;81.52;99908.63;92652;1223;68229;-68
2021/07/03 03:03:22;;;;;;;7.00;5.00;;;;;;;17.91;81.79;99911.36;92702;1221;69423;-69
2021/07/03 03:05:30;;;;;;;6.50;5.40;;;;;;;17.94;81.78;99915.50;92697;1224;86949;-70
2021/07/03 03:07:39;;;;;;;6.10;5.40;;;;;;;17.93;81.70;99914.70;92664;1216;75092;-70
2021/07/03 03:09:46;;;;;;;6.20;5.60;;;;;;;17.97;81.66;99918.57;92676;1216;81751;-70
2021/07/03 03:11:54;;;;;;;6.20;5.60;;;;;;;17.98;81.71;99909.30;92672;1217;67159;-70
2021/07/03 03:14:01;;;;;;;6.50;5.90;;;;;;;17.97;81.67;99915.84;92733;1217;69027;-71
2021/07/03 03:16:09;;;;;;;6.40;5.80;;;;;;;17.97;81.60;99909.53;92684;1221;85566;-58
2021/07/03 03:18:17;;;;;;;6.10;5.60;;;;;;;17.94;81.87;99912.77;92707;1222;74058;-60
2021/07/03 03:20:28;;;;;;;6.20;5.60;;;;;;;17.93;81.94;99914.70;92699;1217;81614;-69
2021/07/03 03:22:36;;;;;;;6.80;6.20;;;;;;;17.92;81.89;99923.13;92694;1221;67206;-70
2021/07/03 03:24:45;;;;;;;7.90;5.90;;;;;;;17.91;81.88;99908.63;92759;1210;68883;-69
2021/07/03 03:26:53;;;;;;;6.90;6.20;;;;;;;17.94;81.93;99916.33;92683;1218;86709;-70
2021/07/03 03:29:01;;;;;;;7.50;6.80;;;;;;;17.89;82.16;99912.69;92660;1217;74254;-70
2021/07/03 03:31:12;;;;;;;7.00;6.40;;;;;;;17.86;82.16;99910.45;92662;1216;81083;-59
2021/07/03 03:33:23;;;;;;;6.30;5.70;;;;;;;17.86;82.45;99911.28;92702;1223;67780;-59
2021/07/03 03:35:34;;;;;;;6.20;5.60;;;;;;;17.86;82.28;99916.75;92739;1222;68911;-71
2021/07/03 03:37:42;;;;;;;6.60;5.80;;;;;;;17.85;82.50;99926.05;92721;1224;85241;-70
2021/07/03 03:39:49;;;;;;;8.10;6.10;;;;;;;17.82;82.41;99912.88;92706;1217;74698;-71
2021/07/03 03:41:57;;;;;;;6.70;6.10;;;;;;;17.84;82.57;99921.64;92654;1217;81288;-70
2021/07/03 03:44:08;;;;;;;6.50;5.90;;;;;;;17.88;82.66;99914.59;92688;1218;68564;-71
2021/07/03 03:46:16;;;;;;;6.60;6.00;;;;;;;17.91;82.36;99914.09;92707;1216;68186;-71
2021/07/03 03:48:23;;;;;;;7.40;6.00;;;;;;;17.84;82.64;99921.64;92706;1217;85435;-71
2021/07/03 03:50:31;;;;;;;6.70;6.00;;;;;;;17.89;82.61;99924.45;92712;1223;74356;-70
2021/07/03 03:52:39;;;;;;;6.80;6.20;;;;;;;17.90;82.64;99923.39;92711;1209;81618;-71
2021/07/03 03:54:50;;;;;;;6.70;6.10;;;;;;;17.90;82.44;99923.39;92700;1217;66995;-60
2021/07/03 03:59:23;;;;;;;6.90;5.50;;;;;;;17.97;82.81;99926.77;92651;1216;86401;-60
2021/07/03 04:01:30;;;;;;;6.40;5.90;;;;;;;17.99;82.62;99923.80;92716;1217;74557;-60
2021/07/03 04:03:38;;;;;;;5.80;5.00;;;;;;;17.94;82.94;99921.80;92700;1224;81104;-58
2021/07/03 04:05:46;;;;;;;6.50;5.90;;;;;;;17.98;82.82;99924.88;92626;1216;67531;-70
2021/07/03 04:07:53;;;;;;;6.20;5.60;;;;;;;18.05;82.73;99928.25;92659;1217;69356;-72
2021/07/03 04:10:01;;;;;;;5.50;5.00;;;;;;;18.11;82.65;99919.89;92702;1214;85343;-70
2021/07/03 04:12:10;;;;;;;5.50;5.00;;;;;;;18.13;82.68;99931.39;92634;1217;73763;-71
2021/07/03 04:14:18;;;;;;;6.20;5.10;;;;;;;18.16;82.71;99925.43;92715;1222;82041;-70
2021/07/03 04:16:25;;;;;;;5.50;5.00;;;;;;;18.19;82.70;99921.37;92622;1221;66961;-59
2021/07/03 04:18:33;;;;;;;5.10;4.70;;;;;;;18.21;82.64;99927.44;92691;1223;70425;-60
2021/07/03 04:20:41;;;;;;;9.90;5.70;;;;;;;18.17;82.50;99931.73;92703;1216;85474;-58
2021/07/03 04:22:49;;;;;;;5.40;4.90;;;;;;;18.13;82.67;99931.39;92717;1217;74906;-58
2021/07/03 04:24:56;;;;;;;5.20;4.70;;;;;;;18.11;82.66;99932.72;92698;1209;80099;-58
2021/07/03 04:27:05;;;;;;;6.40;4.80;;;;;;;18.13;82.88;99931.39;92681;1217;68659;-58
2021/07/03 04:29:13;;;;;;;5.20;4.70;;;;;;;18.07;83.02;99937.89;92729;1216;69907;-59
2021/07/03 04:31:23;;;;;;;5.20;4.70;;;;;;;18.01;82.99;99938.05;92681;1217;87229;-60
2021/07/03 04:33:31;;;;;;;5.40;4.80;;;;;;;18.06;82.82;99938.12;92719;1217;75022;-58
2021/07/03 04:35:39;;;;;;;5.10;4.60;;;;;;;18.10;82.71;99931.89;92673;1217;82549;-59
2021/07/03 04:37:47;;;;;;;5.10;3.80;;;;;;;18.08;82.83;99938.69;92626;1209;67414;-59
2021/07/03 04:39:54;;;;;;;6.10;4.20;;;;;;;18.02;83.03;99940.52;92689;1216;68920;-71
2021/07/03 04:42:02;;;;;;;4.90;4.40;;;;;;;18.02;83.05;99937.78;92690;1209;85980;-70
2021/07/03 04:44:13;;;;;;;5.60;4.90;;;;;;;18.07;82.92;99943.36;92735;1214;74005;-71
2021/07/03 04:46:21;;;;;;;5.70;4.70;;;;;;;18.07;83.01;99948.83;92634;1217;82102;-60
2021/07/03 04:48:29;;;;;;;5.60;4.80;;;;;;;18.06;82.93;99946.32;92669;1224;67735;-61
2021/07/03 04:50:36;;;;;;;6.70;4.80;;;;;;;18.07;82.97;99937.89;92665;1217;69691;-72
2021/07/03 04:52:44;;;;;;;4.90;4.50;;;;;;;18.08;83.04;99944.16;92595;1219;86479;-71
2021/07/03 04:54:52;;;;;;;5.10;4.60;;;;;;;18.11;83.02;99939.03;92640;1221;74758;-59
2021/07/03 04:57:07;;;;;;;4.90;4.30;;;;;;;18.20;82.91;99940.27;92617;1221;81507;-59
2021/07/03 04:59:15;;;;;;;5.40;4.80;;;;;;;18.21;82.96;99946.58;92628;1217;67487;-60
2021/07/03 05:01:23;;;;;;;5.40;4.70;;;;;;;18.20;82.98;99944.91;92669;1224;69212;-73
2021/07/03 05:03:30;;;;;;;5.00;4.40;;;;;;;18.23;82.86;99934.31;92647;1216;86049;-71
2021/07/03 05:05:38;;;;;;;5.80;4.50;;;;;;;18.30;82.88;99936.84;92666;1214;75265;-71
2021/07/03 05:07:48;;;;;;;5.40;4.90;;;;;;;18.36;82.86;99935.02;92631;1216;81794;-69
2021/07/03 05:09:56;;;;;;;5.90;4.20;;;;;;;18.33;82.82;99933.62;92698;1224;67887;-59
2021/07/03 05:12:05;;;;;;;5.60;4.30;;;;;;;18.35;82.91;99922.44;92648;1224;69370;-59
2021/07/03 05:14:13;;;;;;;4.80;4.00;;;;;;;18.39;82.85;99929.05;92664;1222;86844;-59
2021/07/03 05:16:21;;;;;;;4.90;4.40;;;;;;;18.38;82.79;99928.22;92694;1216;73518;-59
2021/07/03 05:18:29;;;;;;;4.90;4.40;;;;;;;18.40;82.86;99931.55;92703;1223;82130;-60
2021/07/03 05:20:39;;;;;;;4.50;4.00;;;;;;;18.37;82.79;99918.38;92685;1217;65441;-59
2021/07/03 05:22:47;;;;;;;5.30;4.60;;;;;;;18.38;82.82;99927.38;92756;1217;68491;-59
2021/07/03 05:24:55;;;;;;;4.90;4.40;;;;;;;18.38;82.74;99930.95;92714;1216;86795;-59
2021/07/03 05:27:06;;;;;;;5.70;4.00;;;;;;;18.44;82.67;99938.16;92700;1223;73846;-58
2021/07/03 05:29:14;;;;;;;4.00;3.70;;;;;;;18.36;82.65;99930.38;92711;1217;81869;-58
2021/07/03 05:31:25;;;;;;;4.60;4.20;;;;;;;18.40;82.71;99938.92;92702;1217;67094;-60
2021/07/03 05:33:35;;;;;;;6.00;4.20;;;;;;;18.38;82.70;99935.59;92718;1216;69269;-58
2021/07/03 05:35:43;;;;;;;5.30;3.90;;;;;;;18.31;82.73;99934.95;92712;1216;85305;-58
2021/07/03 05:37:54;;;;;;;3.70;3.40;;;;;;;18.33;82.70;99933.62;92709;1217;75451;-60
2021/07/03 05:40:01;;;;;;;4.10;3.70;;;;;;;18.32;83.06;99934.71;92698;1223;80860;-70
2021/07/03 05:42:09;;;;;;;5.20;3.70;;;;;;;18.31;83.18;99932.21;92617;1224;70049;-70
2021/07/03 05:44:17;;;;;;;4.90;3.70;;;;;;;18.31;82.92;99940.42;92725;1217;68479;-71
2021/07/03 05:46:25;;;;;;;5.90;3.60;;;;;;;18.32;82.97;99942.92;92721;1216;86499;-71
2021/07/03 05:48:34;;;;;;;4.80;3.60;;;;;;;18.35;83.04;99947.86;92712;1216;75065;-69
2021/07/03 05:50:41;;;;;;;4.10;3.70;;;;;;;18.39;82.96;99948.20;92698;1217;81817;-71
2021/07/03 05:52:50;;;;;;;3.50;3.20;;;;;;;18.31;83.22;99946.72;92723;1209;67002;-71
2021/07/03 05:54:57;;;;;;;4.50;3.60;;;;;;;18.36;83.25;99948.69;92703;1223;69068;-58
2021/07/03 05:57:06;;;;;;;3.90;3.40;;;;;;;18.47;83.02;99953.23;92708;1217;85089;-59
2021/07/03 05:59:16;;;;;;;5.60;3.70;;;;;;;18.55;82.93;99955.56;92731;1217;76523;-58
2021/07/03 06:01:24;;;;;;;4.90;3.80;;;;;;;18.49;83.18;99951.93;92681;1217;81029;-61
2021/07/03 06:03:35;;;;;;;4.60;3.80;;;;;;;18.47;83.13;99951.33;92709;1216;67556;-61
2021/07/03 06:05:43;;;;;;;4.60;3.80;;;;;;;18.46;83.28;99948.86;92715;1217;68877;-70
2021/07/03 06:07:50;;;;;;;5.50;4.20;;;;;;;18.45;83.17;99949.93;92707;1216;86916;-71
2021/07/03 06:09:58;;;;;;;4.00;3.60;;;;;;;18.52;83.17;99956.91;92744;1216;74907;-58
2021/07/03 06:12:07;;;;;;;5.50;3.90;;;;;;;18.60;83.17;99952.90;92698;1210;81163;-59
2021/07/03 06:14:17;;;;;;;5.00;4.20;;;;;;;18.53;83.32;99952.27;92696;1216;67281;-61
2021/07/03 06:16:25;;;;;;;4.50;4.00;;;;;;;18.55;83.31;99956.41;92689;1223;68924;-58
2021/07/03 06:18:36;;;;;;;4.70;4.30;;;;;;;18.57;83.36;99961.64;92702;1216;87725;-59
2021/07/03 06:20:44;;;;;;;5.10;4.60;;;;;;;18.65;83.17;99964.74;92706;1214;74274;-61
2021/07/03 06:22:52;;;;;;;5.00;4.50;;;;;;;18.69;83.06;99967.81;92687;1217;80233;-60
2021/07/03 06:25:03;;;;;;;5.10;4.70;;;;;;;18.68;83.20;99972.45;92672;1224;66645;-69
2021/07/03 06:27:12;;;;;;;5.60;4.50;;;;;;;18.76;83.05;99979.42;92716;1217;69967;-70
2021/07/03 06:29:19;;;;;;;5.60;5.00;;;;;;;18.80;83.30;99972.34;92698;1217;87676;-69
2021/07/03 06:31:27;;;;;;;5.70;4.80;;;;;;;18.78;83.00;99975.34;92697;1222;74513;-70
2021/07/03 06:33:34;;;;;;;5.90;5.00;;;;;;;18.82;83.28;99976.48;92689;1217;82269;-70
2021/07/03 06:35:42;;;;;;;6.40;5.00;;;;;;;18.84;83.24;99970.77;92711;1222;67316;-69
2021/07/03 06:37:52;;;;;;;6.70;5.40;;;;;;;18.91;83.40;99982.34;92733;1217;68194;-69
2021/07/03 06:40:00;;;;;;;5.80;5.20;;;;;;;18.97;83.24;99984.08;92627;1219;87431;-58
2021/07/03 06:42:08;;;;;;;5.80;5.20;;;;;;;18.92;83.13;99984.02;92647;1219;73646;-59
2021/07/03 06:44:16;;;;;;;6.70;5.10;;;;;;;18.95;83.19;99978.03;92596;1216;80533;-59
2021/07/03 06:46:24;;;;;;;6.10;5.30;;;;;;;19.00;82.97;99980.00;92666;1216;66605;-59
2021/07/03 06:48:31;;;;;;;6.10;5.50;;;;;;;19.10;83.21;99980.95;92701;1216;68434;-60
2021/07/03 06:50:42;;;;;;;8.30;5.60;;;;;;;19.14;83.04;99984.84;92648;1217;86444;-60
2021/07/03 06:52:50;;;;;;;7.90;5.50;;;;;;;19.08;83.11;99985.86;92667;1216;75865;-58
2021/07/03 06:55:00;;;;;;;9.20;6.80;;;;;;;19.03;83.21;99982.23;92676;1217;82429;-58
2021/07/03 06:57:09;;;;;;;7.60;5.80;;;;;;;19.07;83.08;99988.84;92668;1223;67439;-59
2021/07/03 06:59:21;;;;;;;7.70;6.20;;;;;;;19.00;82.88;99990.95;92709;1217;67970;-60
2021/07/03 07:01:29;;;;;;;6.30;5.70;;;;;;;18.95;82.98;99985.41;92703;1216;87449;-69
2021/07/03 07:03:40;;;;;;;6.70;5.80;;;;;;;18.94;82.91;99990.06;92659;1221;74530;-69
2021/07/03 07:05:47;;;;;;;6.10;5.50;;;;;;;18.93;83.13;99999.34;92640;1222;80851;-58
2021/07/03 07:07:58;;;;;;;5.90;5.30;;;;;;;18.91;83.57;99982.34;92709;1217;67472;-59
2021/07/03 07:10:12;;;;;;;6.40;5.80;;;;;;;18.95;83.22;99991.72;92699;1210;68203;-73
2021/07/03 07:12:22;;;;;;;6.20;5.60;;;;;;;18.97;83.28;99991.45;92717;1217;86657;-70
2021/07/03 07:14:33;;;;;;;8.00;6.50;;;;;;;18.99;83.08;99992.86;92708;1223;74701;-69
2021/07/03 07:16:41;;;;;;;7.30;6.40;;;;;;;19.05;83.14;99993.75;92717;1223;80725;-61
2021/07/03 07:18:49;;;;;;;8.50;7.00;;;;;;;19.06;83.32;99989.94;92719;1217;66978;-60
2021/07/03 07:20:56;;;;;;;6.80;6.20;;;;;;;19.07;83.64;99992.41;92699;1217;69239;-70
2021/07/03 07:23:04;;;;;;;7.60;6.30;;;;;;;19.11;83.48;99992.73;92705;1222;86317;-70
2021/07/03 07:25:14;;;;;;;8.10;6.40;;;;;;;19.12;83.68;99997.11;92689;1217;73921;-58
2021/07/03 07:27:21;;;;;;;7.80;6.90;;;;;;;19.21;83.32;99993.69;92713;1217;80669;-60
2021/07/03 07:29:29;;;;;;;7.50;6.80;;;;;;;19.27;83.43;99989.09;92603;1219;67283;-59
2021/07/03 07:31:37;;;;;;;7.40;6.50;;;;;;;19.30;83.58;99985.85;92723;1217;69065;-71
2021/07/03 07:33:45;;;;;;;7.80;7.10;;;;;;;19.43;83.50;99991.79;92708;1217;85890;-69
2021/07/03 07:35:55;;;;;;;8.30;6.90;;;;;;;19.51;83.42;99989.66;92667;1221;75563;-60
2021/07/03 07:38:03;;;;;;;7.90;6.60;;;;;;;19.60;83.40;99990.87;92688;1217;81330;-59
2021/07/03 07:40:14;;;;;;;7.90;7.10;;;;;;;19.67;83.02;99991.48;92693;1224;68698;-60
2021/07/03 07:42:22;;;;;;;7.20;6.50;;;;;;;19.79;83.10;99992.99;92713;1221;68757;-59
2021/07/03 07:44:33;;;;;;;7.90;7.00;;;;;;;19.77;83.10;99986.95;92644;1217;85894;-60
2021/07/03 07:46:43;;;;;;;8.10;7.30;;;;;;;19.89;82.87;99989.50;92642;1216;75975;-59
2021/07/03 07:48:51;;;;;;;10.50;7.60;;;;;;;19.94;82.74;99986.84;92625;1217;82080;-58
2021/07/03 07:51:01;;;;;;;8.00;7.10;;;;;;;20.05;82.79;99974.88;92672;1214;66182;-59
2021/07/03 07:53:08;;;;;;;8.60;7.80;;;;;;;20.14;82.66;99973.28;92685;1219;69782;-61
2021/07/03 07:55:16;;;;;;;8.20;7.00;;;;;;;20.09;82.51;99973.24;92649;1216;86845;-72
2021/07/03 07:57:24;;;;;;;10.00;9.00;;;;;;;20.08;82.44;99982.55;92664;1217;75728;-70
2021/07/03 07:59:32;;;;;;;10.80;9.70;;;;;;;20.15;82.30;99979.59;92629;1216;81067;-71
2021/07/03 08:01:43;;;;;;;10.30;8.70;;;;;;;20.29;82.20;99980.84;92660;1216;68200;-71
2021/07/03 08:03:53;;;;;;;8.00;7.30;;;;;;;20.38;82.21;99982.81;92711;1223;67854;-71
2021/07/03 08:06:01;;;;;;;7.90;7.10;;;;;;;20.38;82.21;99985.56;92650;1224;86560;-61
2021/07/03 08:08:09;;;;;;;7.80;6.60;;;;;;;20.52;82.09;99980.44;92731;1209;74327;-58
2021/07/03 08:10:17;;;;;;;8.90;7.10;;;;;;;20.57;82.14;99978.56;92674;1217;81849;-71
2021/07/03 08:12:28;;;;;;;8.40;7.10;;;;;;;20.61;81.98;99984.35;92641;1224;66753;-71
2021/07/03 08:14:36;;;;;;;10.00;6.70;;;;;;;20.58;81.80;99987.63;92717;1223;68213;-67
2021/07/03 08:16:44;;;;;;;8.10;7.20;;;;;;;20.53;81.69;99980.20;92716;1216;85280;-67
2021/07/03 08:18:54;;;;;;;8.80;7.90;;;;;;;20.56;81.81;99987.91;92682;1217;76406;-68
2021/07/03 08:21:05;;;;;;;6.70;6.10;;;;;;;20.56;81.29;99978.84;92648;1223;80533;-68
2021/07/03 08:23:14;;;;;;;7.80;7.00;;;;;;;20.55;81.17;99988.98;92661;1224;67586;-66
2021/07/03 08:25:24;;;;;;;7.00;6.40;;;;;;;20.59;81.46;99983.80;92698;1217;68926;-68
2021/07/03 08:27:31;;;;;;;8.00;7.00;;;;;;;20.70;81.35;99990.17;92741;1223;85924;-70
2021/07/03 08:29:39;;;;;;;7.10;6.50;;;;;;;20.75;81.43;99990.20;92703;1222;75854;-66
2021/07/03 08:31:47;;;;;;;8.10;7.30;;;;;;;20.71;81.56;99987.16;92699;1222;80566;-67
2021/07/03 08:33:54;;;;;;;8.80;7.40;;;;;;;20.71;81.38;99995.39;92702;1217;68140;-68
2021/07/03 08:36:02;;;;;;;8.90;6.80;;;;;;;20.78;81.14;99993.25;92660;1217;67860;-69
2021/07/03 08:38:10;;;;;;;7.70;6.90;;;;;;;20.85;81.02;99993.02;92698;1217;87380;-68
2021/07/03 08:40:19;;;;;;;8.20;7.40;;;;;;;20.85;80.66;99990.28;92729;1221;74789;-67
2021/07/03 08:42:30;;;;;;;7.80;6.90;;;;;;;20.88;81.06;99997.95;92717;1224;81300;-69
2021/07/03 08:44:48;;;;;;;8.00;7.10;;;;;;;20.86;80.74;100000.15;92723;1222;66674;-68
2021/07/03 08:46:56;;;;;;;9.70;8.70;;;;;;;20.89;80.52;100003.20;92683;1221;68970;-66
2021/07/03 08:49:04;;;;;;;8.90;8.10;;;;;;;21.05;80.63;100001.34;92677;1224;88140;-66
2021/07/03 08:51:12;;;;;;;8.10;7.30;;;;;;;21.21;80.43;100005.84;92658;1223;75759;-68
2021/07/03 08:53:23;;;;;;;8.80;7.20;;;;;;;21.44;80.64;100005.40;92691;1223;80908;-68
2021/07/03 08:55:32;;;;;;;8.40;7.50;;;;;;;21.49;80.13;100004.58;92671;1218;68683;-69
2021/07/03 08:57:50;;;;;;;8.00;7.20;;;;;;;21.64;80.26;100013.72;92717;1216;69325;-69
2021/07/03 09:00:02;;;;;;;7.70;6.90;;;;;;;21.74;79.97;100016.48;92727;1217;85007;-64
2021/07/03 09:02:10;;;;;;;8.30;7.10;;;;;;;21.74;79.44;100008.23;92725;1223;74227;-67
2021/07/03 09:04:34;;;;;;;8.00;7.20;;;;;;;21.66;79.63;100017.02;92703;1222;79865;-68
2021/07/03 09:06:43;;;;;;;7.80;7.10;;;;;;;21.62;79.61;100018.63;92734;1209;67881;-67
2021/07/03 09:08:56;;;;;;;7.80;7.10;;;;;;;21.56;79.11;100013.41;92727;1209;67768;-68
2021/07/03 09:11:06;;;;;;;10.30;8.50;;;;;;;21.64;79.54;100019.22;92705;1216;87274;-66
2021/07/03 09:13:14;;;;;;;9.90;7.50;;;;;;;21.70;79.44;100017.27;92712;1217;75643;-65
2021/07/03 09:15:27;;;;;;;8.20;7.30;;;;;;;21.76;79.03;100014.27;92698;1216;80064;-69
2021/07/03 09:17:44;;;;;;;8.20;7.30;;;;;;;21.81;78.93;100015.39;92647;1219;68334;-69
2021/07/03 09:19:56;;;;;;;7.90;6.70;;;;;;;21.83;78.88;100008.52;92624;1224;69492;-67
2021/07/03 09:22:03;;;;;;;8.60;7.30;;;;;;;21.97;78.85;100017.10;92744;1217;86575;-64
2021/07/03 09:24:17;;;;;;;11.50;8.20;;;;;;;22.08;78.81;100022.35;92711;1216;74833;-65
2021/07/03 09:26:27;;;;;;;8.20;7.40;;;;;;;22.29;78.88;100025.92;92633;1219;81725;-63
2021/07/03 09:28:38;;;;;;;8.00;7.00;;;;;;;22.47;78.54;100028.11;92693;1223;67949;-60
2021/07/03 09:30:52;;;;;;;7.90;6.90;;;;;;;22.76;79.15;100007.20;92689;1217;68038;-62
2021/07/03 09:33:00;;;;;;;8.10;6.70;;;;;;;23.16;78.50;100019.19;92694;1218;86863;-66
2021/07/03 09:35:13;;;;;;;13.00;7.90;;;;;;;23.52;78.39;100011.62;92680;1224;75066;-61
2021/07/03 09:37:24;;;;;;;7.70;7.00;;;;;;;23.79;77.93;100007.33;92732;1214;80707;-64
2021/07/03 09:39:32;;;;;;;7.40;6.60;;;;;;;24.20;77.35;100004.33;92688;1217;68905;-64
2021/07/03 09:41:41;;;;;;;7.30;6.60;;;;;;;24.35;76.69;100007.78;92724;1217;68181;-65
2021/07/03 09:44:00;;;;;;;7.40;6.50;;;;;;;24.55;76.29;99995.73;92700;1223;85609;-65
2021/07/03 09:46:08;;;;;;;7.70;6.40;;;;;;;24.92;76.00;100004.20;92683;1216;74398;-66
2021/07/03 09:48:16;;;;;;;8.90;7.10;;;;;;;24.96;75.19;99998.92;92665;1217;81504;-66
2021/07/03 09:50:25;;;;;;;7.60;6.60;;;;;;;25.05;74.31;99994.41;92559;1218;65349;-66
2021/07/03 09:52:33;;;;;;;7.50;6.40;;;;;;;25.17;73.78;99990.09;92733;1209;67927;-64
2021/07/03 09:54:41;;;;;;;6.90;6.20;;;;;;;25.36;73.35;99995.66;92685;1217;86859;-65
2021/07/03 09:56:59;;;;;;;7.40;6.70;;;;;;;25.46;73.25;99991.95;92714;1222;74626;-65
2021/07/03 09:59:08;;;;;;;6.90;6.30;;;;;;;25.54;72.81;99997.67;92736;1215;81699;-64
2021/07/03 10:01:18;;;;;;;7.70;7.10;;;;;;;25.60;72.16;100001.20;92692;1216;66824;-62
2021/07/03 10:03:27;;;;;;;9.00;6.80;;;;;;;25.65;71.92;99995.59;92738;1219;69968;-63
2021/07/03 10:05:39;;;;;;;7.70;7.00;;;;;;;25.64;72.00;99997.52;92739;1209;86211;-63
2021/07/03 10:07:56;;;;;;;7.90;6.70;;;;;;;25.78;71.60;99989.30;92748;1217;76351;-61